TimeMST,TemperatureF,Dew PointF,Humidity,Sea Level PressureIn,VisibilityMPH,Wind Direction,Wind SpeedMPH,Gust SpeedMPH,PrecipitationIn,Events,Conditions,WindDirDegrees,DateUTC
12:15 AM,63.5,61.3,93,30.24,10.0,Calm,Calm,-,N/A,,Clear,0,2013-09-05 07:15:00
12:35 AM,62.2,60.8,95,30.24,10.0,SE,3.5,-,N/A,,Clear,140,2013-09-05 07:35:00
12:55 AM,61.7,60.4,96,30.23,10.0,SSE,3.5,-,N/A,,Clear,150,2013-09-05 07:55:00
1:15 AM,62.2,60.8,95,30.23,10.0,Calm,Calm,-,N/A,,Clear,0,2013-09-05 08:15:00
1:35 AM,62.2,60.6,94,30.23,10.0,Calm,Calm,-,N/A,,Scattered Clouds,0,2013-09-05 08:35:00
1:55 AM,62.4,60.6,94,30.22,10.0,Calm,Calm,-,N/A,,Mostly Cloudy,0,2013-09-05 08:55:00
2:15 AM,63.1,61.3,94,30.22,10.0,West,3.5,-,N/A,,Mostly Cloudy,280,2013-09-05 09:15:00
2:35 AM,63.5,61.3,93,30.22,10.0,Calm,Calm,-,N/A,,Scattered Clouds,0,2013-09-05 09:35:00
2:55 AM,62.8,61.2,94,30.22,10.0,Calm,Calm,-,N/A,,Clear,0,2013-09-05 09:55:00
3:15 AM,63.0,61.0,93,30.22,10.0,Calm,Calm,-,N/A,,Scattered Clouds,0,2013-09-05 10:15:00
3:35 AM,63.0,61.0,93,30.22,10.0,NE,4.6,-,N/A,,Scattered Clouds,50,2013-09-05 10:35:00
3:55 AM,62.8,61.3,95,30.21,10.0,Calm,Calm,-,N/A,,Scattered Clouds,0,2013-09-05 10:55:00
4:15 AM,62.8,61.3,95,30.22,10.0,Calm,Calm,-,N/A,,Clear,0,2013-09-05 11:15:00
4:35 AM,61.9,60.8,96,30.22,10.0,SSE,3.5,-,N/A,,Clear,150,2013-09-05 11:35:00
4:55 AM,61.2,60.3,97,30.22,10.0,Calm,Calm,-,N/A,,Clear,0,2013-09-05 11:55:00
5:15 AM,61.5,60.6,97,30.22,10.0,SE,4.6,-,N/A,,Clear,130,2013-09-05 12:15:00
5:35 AM,61.3,60.3,96,30.22,10.0,ESE,3.5,-,N/A,,Clear,120,2013-09-05 12:35:00
5:55 AM,61.3,60.1,96,30.23,10.0,Calm,Calm,-,N/A,,Clear,0,2013-09-05 12:55:00
6:15 AM,61.2,59.7,95,30.23,10.0,Calm,Calm,-,N/A,,Clear,0,2013-09-05 13:15:00
6:35 AM,59.7,58.6,96,30.23,10.0,East,3.5,-,N/A,,Scattered Clouds,90,2013-09-05 13:35:00
6:55 AM,61.7,60.6,96,30.23,10.0,ESE,4.6,-,N/A,,Clear,110,2013-09-05 13:55:00
7:15 AM,62.8,61.0,94,30.24,10.0,Calm,Calm,-,N/A,,Scattered Clouds,0,2013-09-05 14:15:00
7:35 AM,62.8,60.8,93,30.24,10.0,Calm,Calm,-,N/A,,Clear,0,2013-09-05 14:35:00
7:55 AM,64.4,61.3,90,30.25,10.0,Calm,Calm,-,N/A,,Clear,0,2013-09-05 14:55:00
8:15 AM,67.5,61.9,82,30.25,10.0,Calm,Calm,-,N/A,,Clear,0,2013-09-05 15:15:00
8:35 AM,71.2,63.1,75,30.25,10.0,ESE,5.8,-,N/A,,Scattered Clouds,120,2013-09-05 15:35:00
8:55 AM,74.1,62.2,66,30.26,10.0,SE,8.1,-,N/A,,Scattered Clouds,130,2013-09-05 15:55:00
9:15 AM,77.2,61.0,57,30.26,10.0,SE,8.1,-,N/A,,Scattered Clouds,130,2013-09-05 16:15:00
9:35 AM,79.2,59.5,51,30.26,10.0,SSE,8.1,-,N/A,,Scattered Clouds,150,2013-09-05 16:35:00
9:55 AM,80.4,59.0,48,30.26,10.0,SE,8.1,-,N/A,,Mostly Cloudy,140,2013-09-05 16:55:00
10:15 AM,81.0,58.6,46,30.26,10.0,SE,5.8,-,N/A,,Mostly Cloudy,140,2013-09-05 17:15:00
10:35 AM,81.0,58.6,46,30.26,10.0,SE,6.9,-,N/A,,Overcast,140,2013-09-05 17:35:00
10:55 AM,83.5,58.1,42,30.26,10.0,SE,4.6,-,N/A,,Scattered Clouds,130,2013-09-05 17:55:00
11:15 AM,84.9,58.6,41,30.25,10.0,ESE,8.1,-,N/A,,Clear,110,2013-09-05 18:15:00
11:35 AM,86.9,57.7,37,30.24,10.0,ESE,4.6,-,N/A,,Clear,120,2013-09-05 18:35:00
11:55 AM,88.2,55.0,32,30.24,10.0,East,4.6,-,N/A,,Clear,100,2013-09-05 18:55:00
12:15 PM,89.8,52.2,28,30.24,10.0,SSE,8.1,-,N/A,,Clear,150,2013-09-05 19:15:00
12:35 PM,90.3,51.8,27,30.23,10.0,South,5.8,-,N/A,,Clear,170,2013-09-05 19:35:00
12:55 PM,91.8,50.4,24,30.22,10.0,ESE,3.5,-,N/A,,Scattered Clouds,110,2013-09-05 19:55:00
1:15 PM,92.8,49.8,23,30.22,10.0,South,9.2,-,N/A,,Clear,180,2013-09-05 20:15:00
1:35 PM,92.3,50.7,24,30.21,10.0,West,9.2,17.3,N/A,,Scattered Clouds,280,2013-09-05 20:35:00
1:55 PM,92.3,48.9,23,30.20,10.0,WNW,4.6,-,N/A,,Scattered Clouds,290,2013-09-05 20:55:00
2:15 PM,91.6,46.9,21,30.20,10.0,SW,5.8,-,N/A,,Mostly Cloudy,230,2013-09-05 21:15:00
2:35 PM,91.2,51.3,25,30.19,10.0,West,10.4,19.6,N/A,,Scattered Clouds,270,2013-09-05 21:35:00
2:55 PM,92.3,52.3,26,30.19,10.0,SW,10.4,16.1,N/A,,Scattered Clouds,230,2013-09-05 21:55:00
3:15 PM,92.7,50.0,23,30.19,10.0,West,5.8,-,N/A,,Scattered Clouds,280,2013-09-05 22:15:00
3:35 PM,92.1,49.8,23,30.19,10.0,West,8.1,-,N/A,,Clear,270,2013-09-05 22:35:00
3:55 PM,91.6,49.8,24,30.18,10.0,WSW,8.1,-,N/A,,Clear,250,2013-09-05 22:55:00
4:15 PM,91.2,50.4,25,30.18,10.0,West,6.9,-,N/A,,Clear,280,2013-09-05 23:15:00
4:35 PM,91.0,49.1,24,30.17,10.0,SSW,5.8,-,N/A,,Clear,210,2013-09-05 23:35:00
4:55 PM,91.0,48.2,23,30.17,10.0,SSW,8.1,-,N/A,,Clear,210,2013-09-05 23:55:00
5:15 PM,90.0,48.0,24,30.17,10.0,SW,5.8,-,N/A,,Clear,220,2013-09-06 00:15:00
5:35 PM,85.8,50.2,29,30.18,10.0,WSW,18.4,25.3,N/A,,Clear,240,2013-09-06 00:35:00
5:55 PM,82.6,52.2,35,30.18,10.0,WSW,15.0,24.2,N/A,,Clear,240,2013-09-06 00:55:00
6:15 PM,81.0,52.7,37,30.18,10.0,WSW,8.1,-,N/A,,Mostly Cloudy,240,2013-09-06 01:15:00
6:35 PM,80.4,52.5,38,30.18,10.0,NE,4.6,-,N/A,,Mostly Cloudy,50,2013-09-06 01:35:00
6:55 PM,79.5,53.1,40,30.19,10.0,SW,3.5,-,N/A,,Scattered Clouds,220,2013-09-06 01:55:00
7:15 PM,79.7,52.2,38,30.19,10.0,Calm,Calm,-,N/A,,Clear,0,2013-09-06 02:15:00
7:35 PM,76.5,54.0,46,30.19,10.0,Calm,Calm,-,N/A,,Clear,0,2013-09-06 02:35:00
7:55 PM,72.3,56.1,57,30.19,10.0,East,4.6,-,N/A,,Clear,90,2013-09-06 02:55:00
8:15 PM,70.3,57.6,64,30.19,10.0,Calm,Calm,-,N/A,,Clear,0,2013-09-06 03:15:00
8:35 PM,70.3,57.4,63,30.20,10.0,South,5.8,-,N/A,,Clear,180,2013-09-06 03:35:00
8:55 PM,70.2,57.2,63,30.20,10.0,SSE,5.8,-,N/A,,Scattered Clouds,160,2013-09-06 03:55:00
9:15 PM,68.7,58.1,69,30.20,10.0,ESE,3.5,-,N/A,,Scattered Clouds,110,2013-09-06 04:15:00
9:35 PM,68.5,58.8,71,30.20,10.0,Calm,Calm,-,N/A,,Clear,0,2013-09-06 04:35:00
9:55 PM,69.3,58.6,69,30.21,10.0,SSE,4.6,-,N/A,,Clear,160,2013-09-06 04:55:00
10:15 PM,69.1,57.9,68,30.21,10.0,SE,3.5,-,N/A,,Clear,130,2013-09-06 05:15:00
10:35 PM,68.7,57.7,68,30.21,10.0,ESE,5.8,-,N/A,,Clear,120,2013-09-06 05:35:00
10:55 PM,67.6,57.9,71,30.21,10.0,East,5.8,-,N/A,,Clear,100,2013-09-06 05:55:00
11:15 PM,66.9,57.7,72,30.21,10.0,ESE,6.9,-,N/A,,Clear,110,2013-09-06 06:15:00
11:35 PM,66.9,56.3,69,30.21,10.0,ESE,3.5,-,N/A,,Clear,120,2013-09-06 06:35:00
11:55 PM,66.2,56.5,71,30.21,10.0,Calm,Calm,-,N/A,,Clear,0,2013-09-06 06:55:00